Time;durP1;ratioP1;P1;durP2;ratioP2;P2;SDS_P1;SDS_P2;PMS_P1;PMS_P2;Temp;Humidity;BMP_temperature;BMP_pressure;BME280_temperature;BME280_humidity;BME280_pressure;Samples;Min_cycle;Max_cycle;Signal;HPM_P1;HPM_P2
2022/07/08 00:00:00;;;;;;;14.07;4.80;;;15.50;99.90;;;;;;5093884;28;20456;-80
2022/07/08 00:02:27;;;;;;;11.63;3.50;;;15.50;99.90;;;;;;5093188;28;20462;-80
2022/07/08 00:04:55;;;;;;;13.70;4.03;;;15.50;99.90;;;;;;5080713;28;20453;-80
2022/07/08 00:07:22;;;;;;;11.80;4.10;;;15.50;99.90;;;;;;5080580;28;20445;-80
2022/07/08 00:09:49;;;;;;;10.27;3.80;;;15.50;99.90;;;;;;5079070;28;20444;-80
2022/07/08 00:12:16;;;;;;;17.30;3.87;;;15.50;99.90;;;;;;5079270;28;20863;-80
2022/07/08 00:14:42;;;;;;;9.43;4.00;;;15.60;99.90;;;;;;5079474;28;20542;-80
2022/07/08 00:17:09;;;;;;;12.23;4.73;;;15.60;99.90;;;;;;5080952;28;20487;-80
2022/07/08 00:19:36;;;;;;;14.23;4.27;;;15.70;99.90;;;;;;5079455;28;20453;-79
2022/07/08 00:22:04;;;;;;;9.40;4.80;;;15.40;99.90;;;;;;5079460;28;20461;-81
2022/07/08 00:24:31;;;;;;;11.27;3.90;;;15.50;99.90;;;;;;5078217;28;20452;-81
2022/07/08 00:26:58;;;;;;;19.03;5.83;;;15.40;99.90;;;;;;5077201;28;20445;-79
2022/07/08 00:29:25;;;;;;;7.93;3.87;;;15.50;99.90;;;;;;5078726;28;20531;-81
2022/07/08 00:31:51;;;;;;;11.60;3.53;;;15.50;99.90;;;;;;5078562;28;20575;-80
2022/07/08 00:34:18;;;;;;;10.13;3.93;;;15.50;99.90;;;;;;5078956;28;20455;-80
2022/07/08 00:36:46;;;;;;;12.30;4.53;;;15.50;99.90;;;;;;5080586;28;20471;-81
2022/07/08 00:39:14;;;;;;;15.90;4.73;;;15.40;99.90;;;;;;5083014;28;20456;-80
2022/07/08 00:41:41;;;;;;;16.73;4.60;;;15.30;99.90;;;;;;5088784;28;20441;-80
2022/07/08 00:44:08;;;;;;;16.37;4.50;;;15.40;99.90;;;;;;5093336;28;20508;-80
2022/07/08 00:46:35;;;;;;;13.67;5.27;;;15.40;99.90;;;;;;5093319;28;20444;-80
2022/07/08 00:49:01;;;;;;;9.30;4.60;;;15.40;99.90;;;;;;5080345;28;20419;-80
2022/07/08 00:51:29;;;;;;;10.90;4.53;;;15.00;99.90;;;;;;5077874;28;20484;-80
2022/07/08 00:53:56;;;;;;;15.40;4.30;;;15.40;99.90;;;;;;5077778;28;20943;-79
2022/07/08 00:56:26;;;;;;;15.10;4.63;;;15.40;99.90;;;;;;5077975;28;20452;-80
2022/07/08 00:58:53;;;;;;;18.70;5.30;;;15.30;99.90;;;;;;5079560;28;20939;-81
2022/07/08 01:01:21;;;;;;;19.40;5.00;;;15.30;99.90;;;;;;5078061;28;20447;-80
2022/07/08 01:03:48;;;;;;;10.50;5.50;;;15.40;99.90;;;;;;5077060;28;20479;-80
2022/07/08 01:06:15;;;;;;;12.93;4.70;;;15.40;99.90;;;;;;5077944;28;20444;-80
2022/07/08 01:08:43;;;;;;;12.33;4.63;;;15.40;99.90;;;;;;5078383;28;20453;-80
2022/07/08 01:11:10;;;;;;;9.87;4.93;;;15.40;99.90;;;;;;5078534;28;20568;-80
2022/07/08 01:13:39;;;;;;;16.37;5.17;;;15.40;99.90;;;;;;5077244;28;20532;-80
2022/07/08 01:16:07;;;;;;;16.90;4.70;;;15.40;99.90;;;;;;5079170;28;20445;-80
2022/07/08 01:18:34;;;;;;;13.23;4.57;;;15.30;99.90;;;;;;5078388;28;20448;-80
2022/07/08 01:21:03;;;;;;;11.73;4.30;;;15.40;99.90;;;;;;5077628;28;20445;-81
2022/07/08 01:23:30;;;;;;;10.57;4.07;;;15.40;99.90;;;;;;5077618;28;20820;-80
2022/07/08 01:25:57;;;;;;;9.67;3.60;;;15.40;99.90;;;;;;5077796;28;20460;-80
2022/07/08 01:28:24;;;;;;;18.67;4.30;;;15.40;99.90;;;;;;5077858;28;20449;-81
2022/07/08 01:30:51;;;;;;;16.07;5.50;;;15.40;99.90;;;;;;5077676;28;20449;-81
2022/07/08 01:33:18;;;;;;;20.70;5.47;;;15.30;99.90;;;;;;5088061;28;20520;-80
2022/07/08 01:35:45;;;;;;;12.07;4.77;;;15.30;99.90;;;;;;5094374;28;20911;-80
2022/07/08 01:38:13;;;;;;;15.10;5.10;;;15.30;99.90;;;;;;5094334;28;20505;-80
2022/07/08 01:40:40;;;;;;;17.27;4.93;;;15.20;99.90;;;;;;5094038;28;20436;-79
2022/07/08 01:43:07;;;;;;;12.53;5.23;;;15.20;99.90;;;;;;5088575;28;20975;-81
2022/07/08 01:45:34;;;;;;;9.77;4.60;;;15.20;99.90;;;;;;5086488;28;20470;-80
2022/07/08 01:48:01;;;;;;;18.00;5.37;;;15.30;99.90;;;;;;5080539;28;20441;-80
2022/07/08 01:50:28;;;;;;;15.90;6.30;;;15.30;99.90;;;;;;5082673;28;20448;-81
2022/07/08 01:52:54;;;;;;;16.40;5.80;;;15.30;99.90;;;;;;5082191;28;20488;-80
2022/07/08 01:55:23;;;;;;;19.17;5.90;;;15.40;99.90;;;;;;5083447;28;20456;-80
2022/07/08 01:57:50;;;;;;;16.13;5.03;;;15.50;99.90;;;;;;5085494;28;20494;-80
2022/07/08 02:00:16;;;;;;;15.50;5.07;;;15.50;99.90;;;;;;5090578;28;20441;-79
2022/07/08 02:02:44;;;;;;;21.20;4.97;;;15.50;99.90;;;;;;5092091;28;20457;-79
2022/07/08 02:05:11;;;;;;;13.20;4.80;;;15.50;99.90;;;;;;5078744;28;20479;-79
2022/07/08 02:07:38;;;;;;;17.53;4.90;;;15.50;99.90;;;;;;5077394;28;20437;-80
2022/07/08 02:10:06;;;;;;;21.90;6.20;;;15.40;99.90;;;;;;5080061;28;20449;-79
2022/07/08 02:12:33;;;;;;;14.90;4.83;;;15.40;99.90;;;;;;5082118;28;20488;-81
2022/07/08 02:15:02;;;;;;;17.07;5.27;;;15.40;99.90;;;;;;5085947;28;20548;-80
2022/07/08 02:17:31;;;;;;;13.53;5.03;;;15.40;99.90;;;;;;5086069;28;20947;-80
2022/07/08 02:19:57;;;;;;;12.40;5.57;;;15.40;99.90;;;;;;5084221;28;20432;-80
2022/07/08 02:22:24;;;;;;;13.37;5.53;;;15.40;99.90;;;;;;5083867;28;20467;-81
2022/07/08 02:24:51;;;;;;;14.37;4.90;;;15.40;99.90;;;;;;5083550;28;21009;-79
2022/07/08 02:27:18;;;;;;;14.47;5.07;;;15.40;99.90;;;;;;5083885;28;20455;-79
2022/07/08 02:29:46;;;;;;;15.93;4.87;;;15.40;99.90;;;;;;5083612;28;20453;-79
2022/07/08 02:32:13;;;;;;;12.97;5.17;;;15.40;99.90;;;;;;5084010;28;21009;-79
2022/07/08 02:34:40;;;;;;;15.07;4.60;;;15.50;99.90;;;;;;5083674;28;20454;-79
2022/07/08 02:37:07;;;;;;;10.50;4.63;;;15.40;99.90;;;;;;5084364;28;20460;-79
2022/07/08 02:39:34;;;;;;;13.57;5.00;;;15.40;99.90;;;;;;5083296;28;20448;-79
2022/07/08 02:42:01;;;;;;;12.57;5.50;;;15.30;99.90;;;;;;5083198;28;20456;-79
2022/07/08 02:44:27;;;;;;;17.93;5.23;;;15.40;99.90;;;;;;5085155;28;20935;-80
2022/07/08 02:46:55;;;;;;;14.33;4.23;;;15.50;99.90;;;;;;5093952;28;20439;-80
2022/07/08 02:49:22;;;;;;;13.20;4.30;;;15.40;99.90;;;;;;5100925;28;20428;-80
2022/07/08 02:51:49;;;;;;;12.33;5.17;;;15.30;99.90;;;;;;5099727;28;20468;-80
2022/07/08 02:54:16;;;;;;;10.37;4.00;;;15.30;99.90;;;;;;5089646;28;20919;-80
2022/07/08 02:56:42;;;;;;;13.37;5.40;;;15.50;99.90;;;;;;5083273;28;20429;-80
2022/07/08 02:59:09;;;;;;;11.17;4.30;;;15.50;99.90;;;;;;5089775;28;20440;-80
2022/07/08 03:01:36;;;;;;;12.00;4.97;;;15.50;99.90;;;;;;5084590;28;20459;-81
2022/07/08 03:04:04;;;;;;;16.57;4.73;;;15.30;99.90;;;;;;5085791;28;20440;-81
2022/07/08 03:06:31;;;;;;;13.63;5.10;;;15.30;99.90;;;;;;5086974;28;20931;-81
2022/07/08 03:08:58;;;;;;;12.60;4.53;;;15.20;99.90;;;;;;5085045;28;20454;-80
2022/07/08 03:11:26;;;;;;;11.63;4.33;;;15.10;99.90;;;;;;5084996;28;20445;-81
2022/07/08 03:13:53;;;;;;;20.27;6.50;;;15.30;99.90;;;;;;5084192;28;20922;-81
2022/07/08 03:16:20;;;;;;;34.93;22.47;;;15.40;99.90;;;;;;5083499;28;20448;-80
2022/07/08 03:18:47;;;;;;;7.60;4.43;;;15.40;99.90;;;;;;5085195;28;20456;-80
2022/07/08 03:21:15;;;;;;;16.20;4.47;;;15.30;99.90;;;;;;5089234;28;20441;-80
2022/07/08 03:23:41;;;;;;;14.20;4.83;;;15.50;99.90;;;;;;5092016;28;20466;-80
2022/07/08 03:26:08;;;;;;;15.70;5.90;;;15.30;99.90;;;;;;5085144;28;20445;-80
2022/07/08 03:28:35;;;;;;;14.73;5.20;;;15.40;99.90;;;;;;5085932;28;20497;-81
2022/07/08 03:31:02;;;;;;;10.20;3.87;;;15.40;99.90;;;;;;5095779;28;20441;-81
2022/07/08 03:33:28;;;;;;;20.30;5.60;;;15.40;99.90;;;;;;5095018;28;20484;-81
2022/07/08 03:35:55;;;;;;;20.87;8.03;;;15.30;99.90;;;;;;5095599;28;20524;-80
2022/07/08 03:38:23;;;;;;;14.77;5.10;;;15.40;99.90;;;;;;5095466;28;20471;-80
2022/07/08 03:43:34;;;;;;;16.70;7.50;;;15.50;99.90;;;;;;5092962;28;20439;-81
2022/07/08 03:46:01;;;;;;;38.40;21.17;;;15.50;99.90;;;;;;5080462;28;20950;-80
2022/07/08 03:48:28;;;;;;;17.57;5.20;;;15.60;99.90;;;;;;5080337;28;20460;-80
2022/07/08 03:50:54;;;;;;;11.67;4.37;;;15.50;99.90;;;;;;5080008;28;20445;-80
2022/07/08 03:53:22;;;;;;;35.23;22.63;;;15.50;99.90;;;;;;5099987;22;20552;-77
2022/07/08 03:55:49;;;;;;;20.20;8.23;;;15.60;99.90;;;;;;5074983;28;20452;-76
2022/07/08 03:58:16;;;;;;;18.40;10.23;;;15.60;99.90;;;;;;5074696;28;20447;-77
2022/07/08 04:00:42;;;;;;;15.00;6.10;;;15.70;99.90;;;;;;5074448;28;20441;-76
2022/07/08 04:03:09;;;;;;;16.07;4.37;;;15.80;99.90;;;;;;5074751;28;20812;-76
2022/07/08 04:05:36;;;;;;;6.87;4.10;;;15.60;99.90;;;;;;5074643;28;21017;-77
2022/07/08 04:08:03;;;;;;;34.63;23.53;;;15.60;99.90;;;;;;5074730;28;20447;-77
2022/07/08 04:10:31;;;;;;;17.33;10.60;;;15.70;99.90;;;;;;5074850;28;20444;-76
2022/07/08 04:12:58;;;;;;;11.73;4.83;;;15.60;99.90;;;;;;5074521;28;20488;-77
2022/07/08 04:15:24;;;;;;;18.13;9.67;;;15.60;99.90;;;;;;5075076;28;20498;-76
2022/07/08 04:17:53;;;;;;;20.07;7.90;;;15.70;99.90;;;;;;5075455;28;20951;-76
2022/07/08 04:20:20;;;;;;;12.40;6.43;;;15.60;99.90;;;;;;5075723;28;20815;-77
2022/07/08 04:22:47;;;;;;;11.27;4.93;;;15.60;99.90;;;;;;5074398;28;20460;-77
2022/07/08 04:25:14;;;;;;;20.90;10.03;;;15.50;99.90;;;;;;5074229;28;20437;-77
2022/07/08 04:27:42;;;;;;;28.73;7.93;;;15.50;99.90;;;;;;5074335;28;20445;-77
2022/07/08 04:30:09;;;;;;;15.57;6.30;;;15.50;99.90;;;;;;5074432;28;20795;-77
2022/07/08 04:32:37;;;;;;;22.33;4.80;;;15.60;99.90;;;;;;5074324;28;20919;-77
2022/07/08 04:35:04;;;;;;;11.07;4.70;;;15.60;99.90;;;;;;5074267;28;20444;-77
2022/07/08 04:37:31;;;;;;;18.10;12.20;;;15.70;99.90;;;;;;5074113;28;20453;-76
2022/07/08 04:39:58;;;;;;;13.20;5.63;;;15.70;99.90;;;;;;5074241;28;20445;-76
2022/07/08 04:42:25;;;;;;;12.67;4.60;;;15.70;99.90;;;;;;5074265;28;20808;-76
2022/07/08 04:44:53;;;;;;;10.70;5.50;;;15.60;99.90;;;;;;5074161;28;20448;-76
2022/07/08 04:47:20;;;;;;;13.43;7.10;;;15.60;99.90;;;;;;5074430;28;20456;-76
2022/07/08 04:49:47;;;;;;;12.20;5.87;;;15.70;99.90;;;;;;5074212;28;20475;-76
2022/07/08 04:52:13;;;;;;;10.60;5.00;;;15.70;99.90;;;;;;5073755;28;21007;-76
2022/07/08 04:54:40;;;;;;;16.33;6.07;;;15.80;99.90;;;;;;5073866;28;20415;-76
2022/07/08 04:57:07;;;;;;;14.50;9.93;;;15.70;99.90;;;;;;5073801;28;20477;-76
2022/07/08 04:59:34;;;;;;;47.73;27.83;;;15.80;99.90;;;;;;5074129;28;20441;-77
2022/07/08 05:02:03;;;;;;;21.02;9.65;;;15.80;99.90;;;;;;5072824;28;20430;-76
2022/07/08 05:04:29;;;;;;;9.87;3.80;;;15.80;99.90;;;;;;5073765;28;20210;-76
2022/07/08 05:06:56;;;;;;;7.30;3.70;;;15.90;99.90;;;;;;5073933;28;20449;-76
2022/07/08 05:09:23;;;;;;;11.10;4.17;;;15.70;99.90;;;;;;5075147;28;20764;-77
2022/07/08 05:11:50;;;;;;;7.07;3.90;;;15.60;99.90;;;;;;5074233;28;20483;-76
2022/07/08 05:14:17;;;;;;;12.97;3.77;;;15.70;99.90;;;;;;5073780;28;20449;-76
2022/07/08 05:16:44;;;;;;;10.37;4.23;;;15.60;99.90;;;;;;5073461;28;20440;-76
2022/07/08 05:19:12;;;;;;;11.93;4.47;;;15.50;99.90;;;;;;5073518;28;20445;-76
2022/07/08 05:21:39;;;;;;;8.83;4.53;;;15.60;99.90;;;;;;5073607;28;20441;-77
2022/07/08 05:24:06;;;;;;;10.90;4.27;;;15.70;99.90;;;;;;5073005;28;20467;-77
2022/07/08 05:26:33;;;;;;;10.30;3.80;;;15.80;99.90;;;;;;5073402;28;20455;-77
2022/07/08 05:29:00;;;;;;;9.40;4.10;;;15.80;99.90;;;;;;5073126;28;20485;-77
2022/07/08 05:31:27;;;;;;;12.50;4.50;;;15.90;99.90;;;;;;5073527;28;20453;-77
2022/07/08 05:33:54;;;;;;;15.63;4.70;;;15.90;99.90;;;;;;5073132;28;20496;-77
2022/07/08 05:36:22;;;;;;;7.50;3.73;;;15.80;99.90;;;;;;5072787;28;20901;-77
2022/07/08 05:38:49;;;;;;;7.53;3.67;;;15.70;99.90;;;;;;5073070;28;20444;-77
2022/07/08 05:41:16;;;;;;;7.93;4.70;;;15.70;99.90;;;;;;5073635;28;20449;-77
2022/07/08 05:43:43;;;;;;;7.30;4.20;;;15.70;99.90;;;;;;5073231;28;20811;-78
2022/07/08 05:46:10;;;;;;;9.87;5.10;;;15.70;99.90;;;;;;5073579;28;20797;-77
2022/07/08 05:48:37;;;;;;;10.43;4.60;;;15.70;99.90;;;;;;5072807;28;20445;-77
2022/07/08 05:51:04;;;;;;;12.27;3.13;;;15.60;99.90;;;;;;5073426;28;20445;-77
2022/07/08 05:53:32;;;;;;;7.00;3.87;;;15.60;99.90;;;;;;5073037;28;20495;-77
2022/07/08 05:55:59;;;;;;;8.83;4.00;;;15.40;99.90;;;;;;5074772;28;20468;-77
2022/07/08 05:58:25;;;;;;;8.23;3.53;;;15.40;99.90;;;;;;5077661;28;20453;-77
2022/07/08 06:00:52;;;;;;;6.47;3.60;;;15.30;99.90;;;;;;5076140;28;20471;-77
2022/07/08 06:03:19;;;;;;;11.33;4.20;;;15.20;99.90;;;;;;5072718;28;20972;-77
2022/07/08 06:05:45;;;;;;;9.80;3.60;;;15.40;99.90;;;;;;5073847;28;20445;-77
2022/07/08 06:08:12;;;;;;;6.30;3.77;;;15.40;99.90;;;;;;5073304;28;20855;-77
2022/07/08 06:10:40;;;;;;;8.50;3.37;;;15.10;99.90;;;;;;5073847;28;20453;-77
2022/07/08 06:13:07;;;;;;;12.97;4.27;;;15.10;99.90;;;;;;5073644;28;20490;-77
2022/07/08 06:15:34;;;;;;;5.33;3.40;;;14.90;99.90;;;;;;5074072;28;20470;-77
2022/07/08 06:18:00;;;;;;;4.20;3.30;;;15.00;99.90;;;;;;5074599;28;20440;-77
2022/07/08 06:20:27;;;;;;;9.10;4.20;;;15.10;99.90;;;;;;5078428;28;20452;-78
2022/07/08 06:22:54;;;;;;;6.97;4.50;;;15.30;99.90;;;;;;5085224;28;20834;-78
2022/07/08 06:25:21;;;;;;;6.43;3.83;;;15.10;99.90;;;;;;5086549;28;20452;-77
2022/07/08 06:27:49;;;;;;;7.70;4.13;;;15.10;99.90;;;;;;5084995;28;20452;-78
2022/07/08 06:30:16;;;;;;;22.97;4.30;;;15.20;99.90;;;;;;5076970;28;20828;-78
2022/07/08 06:32:42;;;;;;;7.80;4.33;;;15.20;99.90;;;;;;5074200;28;20492;-78
2022/07/08 06:35:10;;;;;;;11.57;4.10;;;15.20;99.90;;;;;;5074430;28;20451;-78
2022/07/08 06:37:37;;;;;;;13.43;4.40;;;15.40;99.90;;;;;;5073079;28;20540;-77
2022/07/08 06:40:05;;;;;;;12.00;5.60;;;15.50;99.90;;;;;;5073014;28;20449;-77
2022/07/08 06:42:32;;;;;;;10.30;5.60;;;15.40;99.90;;;;;;5073373;28;20534;-77
2022/07/08 06:45:01;;;;;;;11.73;5.80;;;15.40;99.90;;;;;;5073032;28;20442;-77
2022/07/08 06:47:27;;;;;;;9.23;5.17;;;15.30;99.90;;;;;;5072809;28;20519;-78
2022/07/08 06:49:54;;;;;;;14.87;5.40;;;15.40;99.90;;;;;;5072690;28;20966;-77
2022/07/08 06:52:21;;;;;;;9.90;5.30;;;15.40;99.90;;;;;;5072842;28;20480;-77
2022/07/08 06:54:48;;;;;;;12.30;3.73;;;15.50;99.90;;;;;;5073079;28;20424;-77
2022/07/08 06:57:15;;;;;;;10.80;5.23;;;15.50;99.90;;;;;;5073294;28;20479;-78
2022/07/08 06:59:42;;;;;;;12.10;5.50;;;15.40;99.90;;;;;;5073269;28;20516;-77
2022/07/08 07:02:10;;;;;;;14.10;4.87;;;15.40;99.90;;;;;;5076244;28;20483;-78
2022/07/08 07:04:38;;;;;;;12.77;6.20;;;15.40;99.90;;;;;;5076374;28;20440;-77
2022/07/08 07:07:05;;;;;;;11.03;4.70;;;15.40;99.90;;;;;;5076613;28;20476;-77
2022/07/08 07:09:32;;;;;;;16.30;6.37;;;15.40;99.90;;;;;;5077981;28;20449;-77
2022/07/08 07:11:58;;;;;;;11.93;5.37;;;15.50;99.90;;;;;;5077414;28;20448;-78
2022/07/08 07:14:25;;;;;;;13.93;5.80;;;15.40;99.90;;;;;;5076724;28;20545;-77
2022/07/08 07:16:52;;;;;;;12.23;4.53;;;15.40;99.90;;;;;;5077077;28;20498;-77
2022/07/08 07:19:20;;;;;;;7.33;4.30;;;15.40;99.90;;;;;;5076630;28;20453;-78
2022/07/08 07:21:51;;;;;;;15.17;5.57;;;15.40;99.90;;;;;;5078476;28;20510;-77
2022/07/08 07:24:17;;;;;;;17.23;4.53;;;15.40;99.90;;;;;;5077623;28;20433;-78
2022/07/08 07:26:44;;;;;;;15.60;5.40;;;15.40;99.90;;;;;;5078970;28;20453;-78
2022/07/08 07:29:11;;;;;;;12.87;4.50;;;15.50;99.90;;;;;;5079234;28;20449;-78
2022/07/08 07:31:50;;;;;;;14.63;5.30;;;15.40;99.90;;;;;;5081436;28;20437;-78
2022/07/08 07:34:17;;;;;;;7.17;4.10;;;15.50;99.90;;;;;;5081298;28;20468;-78
2022/07/08 07:36:45;;;;;;;12.50;5.03;;;15.50;99.90;;;;;;5083501;28;20449;-78
2022/07/08 07:39:12;;;;;;;17.67;4.43;;;15.20;99.90;;;;;;5085060;28;20415;-77
2022/07/08 07:41:45;;;;;;;7.80;3.70;;;15.30;99.90;;;;;;5083459;28;20861;-78
2022/07/08 07:44:12;;;;;;;14.97;4.63;;;15.40;99.90;;;;;;5079966;28;20488;-77
2022/07/08 07:46:38;;;;;;;17.93;4.07;;;15.30;99.90;;;;;;5075928;28;20487;-77
2022/07/08 07:49:05;;;;;;;10.10;3.90;;;15.30;99.90;;;;;;5075654;28;20449;-77
2022/07/08 07:51:32;;;;;;;10.53;4.77;;;15.40;99.90;;;;;;5076281;28;20445;-77
2022/07/08 07:54:00;;;;;;;6.97;4.13;;;15.40;99.90;;;;;;5076781;28;20550;-78
2022/07/08 07:56:27;;;;;;;11.37;3.80;;;15.40;99.90;;;;;;5077684;28;20448;-78
2022/07/08 07:58:54;;;;;;;18.40;4.90;;;15.50;99.90;;;;;;5078140;28;20448;-77
2022/07/08 08:01:21;;;;;;;8.30;4.90;;;15.60;99.90;;;;;;5080347;28;20433;-77
2022/07/08 08:03:48;;;;;;;9.73;5.00;;;15.60;99.90;;;;;;5078005;28;20476;-76
2022/07/08 08:06:14;;;;;;;15.50;3.90;;;15.60;99.90;;;;;;5075907;28;20452;-76
2022/07/08 08:08:41;;;;;;;6.70;3.13;;;15.80;99.90;;;;;;5077897;28;20445;-77
2022/07/08 08:11:09;;;;;;;8.00;3.57;;;16.10;99.90;;;;;;5077689;28;20518;-77
2022/07/08 08:13:36;;;;;;;10.83;3.50;;;15.90;99.90;;;;;;5077020;28;20566;-77
2022/07/08 08:16:04;;;;;;;8.90;3.43;;;15.90;99.90;;;;;;5080479;28;20445;-80
2022/07/08 08:18:31;;;;;;;11.00;4.77;;;16.00;99.90;;;;;;5085022;28;20484;-77
2022/07/08 08:20:58;;;;;;;10.23;4.30;;;16.10;99.90;;;;;;5084336;28;20532;-78
2022/07/08 08:23:25;;;;;;;4.60;2.70;;;16.10;99.90;;;;;;5084637;28;20459;-77
2022/07/08 08:25:51;;;;;;;10.73;4.00;;;16.30;99.90;;;;;;5079074;28;20448;-78
2022/07/08 08:28:20;;;;;;;5.97;3.37;;;16.30;99.90;;;;;;5082548;28;20429;-78
2022/07/08 08:30:46;;;;;;;12.43;3.60;;;16.30;99.90;;;;;;5083715;28;20447;-78
2022/07/08 08:33:13;;;;;;;5.83;2.67;;;16.40;99.90;;;;;;5078426;28;20480;-78
2022/07/08 08:35:44;;;;;;;8.30;3.20;;;16.40;99.90;;;;;;5076577;28;20496;-77
2022/07/08 08:38:11;;;;;;;12.13;3.77;;;16.50;99.90;;;;;;5077725;28;20433;-79
2022/07/08 08:40:39;;;;;;;6.93;3.10;;;16.80;99.90;;;;;;5077140;28;20456;-78
2022/07/08 08:43:05;;;;;;;7.73;2.90;;;16.70;99.90;;;;;;5075623;28;20499;-79
2022/07/08 08:45:34;;;;;;;10.97;3.13;;;16.60;99.90;;;;;;5075363;28;20958;-78
2022/07/08 08:48:07;;;;;;;9.40;3.13;;;16.70;99.90;;;;;;5077158;28;20966;-79
2022/07/08 08:53:26;;;;;;;7.53;3.10;;;16.80;99.90;;;;;;5076792;28;20491;-79
2022/07/08 08:55:54;;;;;;;6.83;3.40;;;16.80;99.90;;;;;;5076079;28;20880;-78
2022/07/08 08:58:22;;;;;;;10.87;2.87;;;16.80;99.90;;;;;;5077849;28;20547;-77
2022/07/08 09:00:50;;;;;;;5.73;2.43;;;16.90;99.90;;;;;;5077664;28;20492;-78
2022/07/08 09:03:17;;;;;;;9.70;2.67;;;16.90;99.90;;;;;;5075920;28;20465;-78
2022/07/08 09:05:44;;;;;;;5.03;2.33;;;16.90;99.90;;;;;;5078608;28;20456;-79
2022/07/08 09:08:11;;;;;;;9.57;2.97;;;16.80;99.90;;;;;;5080740;28;20464;-77
2022/07/08 09:10:37;;;;;;;7.27;2.40;;;16.70;99.90;;;;;;5082471;28;20452;-77
2022/07/08 09:13:07;;;;;;;6.57;2.70;;;16.60;99.90;;;;;;5082343;28;20517;-77
2022/07/08 09:15:35;;;;;;;6.63;3.20;;;16.60;99.90;;;;;;5078197;28;20448;-77
2022/07/08 09:18:06;;;;;;;9.10;3.93;;;16.60;99.90;;;;;;5076558;28;20451;-77
2022/07/08 09:20:43;;;;;;;8.77;3.10;;;16.60;99.90;;;;;;5075861;28;20456;-77
2022/07/08 09:23:13;;;;;;;7.23;2.50;;;16.50;99.90;;;;;;5075105;28;20464;-78
2022/07/08 09:25:39;;;;;;;7.97;2.40;;;16.50;99.90;;;;;;5075967;28;20453;-78
2022/07/08 09:28:06;;;;;;;6.70;2.70;;;16.70;99.90;;;;;;5074945;28;20449;-78
2022/07/08 09:30:33;;;;;;;4.90;2.50;;;16.70;99.90;;;;;;5074818;28;20449;-77
2022/07/08 09:33:01;;;;;;;5.90;2.50;;;16.60;99.90;;;;;;5073576;28;20478;-77
2022/07/08 09:35:39;;;;;;;7.73;2.40;;;16.70;99.90;;;;;;5073055;28;20481;-77
2022/07/08 09:38:07;;;;;;;4.80;2.30;;;16.50;99.90;;;;;;5073250;28;20809;-76
2022/07/08 09:40:35;;;;;;;10.20;2.80;;;16.50;99.90;;;;;;5073473;28;20889;-76
2022/07/08 09:43:03;;;;;;;7.17;2.43;;;16.60;99.90;;;;;;5073676;28;20469;-76
2022/07/08 09:45:33;;;;;;;7.90;2.80;;;16.60;99.90;;;;;;5073182;28;20455;-77
2022/07/08 09:48:04;;;;;;;9.03;2.53;;;16.60;99.90;;;;;;5073371;28;20539;-77
2022/07/08 09:50:35;;;;;;;12.93;2.73;;;16.60;99.90;;;;;;5073952;28;20487;-77
2022/07/08 09:53:16;;;;;;;4.90;2.30;;;16.50;99.90;;;;;;5073125;28;20861;-79
2022/07/08 09:55:44;;;;;;;6.80;2.37;;;16.60;99.90;;;;;;5073114;28;20425;-78
2022/07/08 09:58:13;;;;;;;8.73;3.10;;;16.70;99.90;;;;;;5073417;28;20853;-77
2022/07/08 10:00:41;;;;;;;6.53;2.83;;;16.70;99.90;;;;;;5073762;28;20476;-78
2022/07/08 10:03:08;;;;;;;5.63;2.63;;;16.70;99.90;;;;;;5073271;28;20472;-77
2022/07/08 10:05:35;;;;;;;7.80;4.10;;;16.70;99.90;;;;;;5072531;28;21007;-79
2022/07/08 10:08:02;;;;;;;10.60;3.40;;;16.70;99.90;;;;;;5074196;28;20794;-77
2022/07/08 10:10:33;;;;;;;7.50;3.30;;;16.70;99.90;;;;;;5074426;28;20452;-78
2022/07/08 10:13:00;;;;;;;12.03;3.30;;;16.70;99.90;;;;;;5074657;28;20503;-78
2022/07/08 10:15:28;;;;;;;7.70;3.40;;;16.80;99.90;;;;;;5075141;28;20477;-78
2022/07/08 10:17:58;;;;;;;5.50;3.57;;;16.80;99.90;;;;;;5073022;28;20522;-77
2022/07/08 10:20:31;;;;;;;5.97;3.93;;;17.00;99.90;;;;;;5074859;28;20476;-78
2022/07/08 10:23:01;;;;;;;8.17;3.27;;;17.10;99.90;;;;;;5075069;28;20528;-79
2022/07/08 10:25:29;;;;;;;8.43;2.97;;;17.30;99.90;;;;;;5073997;28;20440;-77
2022/07/08 10:28:06;;;;;;;6.63;2.30;;;17.20;99.90;;;;;;5081290;28;20440;-78
2022/07/08 10:30:49;;;;;;;8.90;3.77;;;17.50;99.90;;;;;;5085919;28;20439;-77
2022/07/08 10:33:24;;;;;;;6.27;3.90;;;17.50;99.90;;;;;;5077343;28;20499;-78
2022/07/08 10:36:05;;;;;;;10.03;3.80;;;17.70;99.90;;;;;;5077235;28;20786;-77
2022/07/08 10:38:36;;;;;;;7.17;3.30;;;17.70;99.90;;;;;;5077565;28;20451;-78
2022/07/08 10:41:04;;;;;;;11.73;5.77;;;17.80;99.90;;;;;;5077454;28;20429;-77
2022/07/08 10:43:33;;;;;;;5.13;2.83;;;18.00;99.90;;;;;;5077355;28;21006;-78
2022/07/08 10:46:12;;;;;;;8.03;3.07;;;18.20;99.90;;;;;;5079330;28;20463;-79
2022/07/08 10:48:55;;;;;;;8.20;3.77;;;18.30;99.90;;;;;;5079700;28;20520;-79
2022/07/08 10:51:50;;;;;;;6.10;2.70;;;18.30;99.90;;;;;;5082027;28;20425;-78
2022/07/08 10:54:32;;;;;;;3.97;2.83;;;18.40;99.90;;;;;;5081685;28;20532;-78
2022/07/08 10:57:01;;;;;;;10.60;3.07;;;18.50;99.90;;;;;;5078542;28;20465;-77
2022/07/08 10:59:31;;;;;;;6.57;3.10;;;18.50;99.90;;;;;;5077670;28;20564;-77
2022/07/08 11:02:01;;;;;;;5.30;2.10;;;18.50;99.90;;;;;;5081235;28;20425;-78
2022/07/08 11:04:31;;;;;;;5.80;2.10;;;18.50;99.90;;;;;;5078379;28;20448;-78
2022/07/08 11:07:25;;;;;;;5.23;2.73;;;18.60;99.90;;;;;;5081176;28;20444;-80
2022/07/08 11:09:53;;;;;;;3.23;2.07;;;18.70;99.90;;;;;;5080326;28;20452;-80
2022/07/08 11:12:24;;;;;;;5.60;2.70;;;18.70;99.90;;;;;;5080441;28;20464;-79
2022/07/08 11:14:53;;;;;;;5.60;2.40;;;18.80;99.90;;;;;;5080823;28;20468;-79
2022/07/08 11:17:23;;;;;;;5.03;2.50;;;19.00;99.90;;;;;;5082266;28;20451;-80
2022/07/08 11:19:53;;;;;;;3.53;2.57;;;18.90;99.90;;;;;;5084810;28;20512;-81
2022/07/08 11:22:20;;;;;;;3.60;2.03;;;18.80;99.90;;;;;;5083731;28;20472;-80
2022/07/08 11:24:48;;;;;;;4.00;1.73;;;18.90;99.90;;;;;;5083484;28;20447;-79
2022/07/08 11:27:16;;;;;;;7.37;2.30;;;18.90;99.90;;;;;;5087194;28;20545;-80
2022/07/08 11:30:05;;;;;;;3.73;2.10;;;18.90;99.90;;;;;;5085721;28;20441;-82
2022/07/08 11:32:32;;;;;;;6.00;1.80;;;19.10;99.90;;;;;;5080387;28;20541;-80
2022/07/08 11:34:59;;;;;;;4.37;1.70;;;19.30;99.90;;;;;;5081488;28;20556;-79
2022/07/08 11:37:26;;;;;;;4.30;2.07;;;19.30;99.90;;;;;;5080091;28;20886;-79
2022/07/08 11:39:56;;;;;;;5.37;1.80;;;19.30;99.90;;;;;;5079618;28;20460;-77
2022/07/08 11:42:23;;;;;;;4.77;1.90;;;19.60;99.90;;;;;;5079200;28;20980;-80
2022/07/08 11:44:50;;;;;;;2.40;1.60;;;19.60;99.90;;;;;;5079027;28;20540;-78
2022/07/08 11:47:22;;;;;;;4.13;1.87;;;19.70;99.90;;;;;;5079453;28;20433;-84
2022/07/08 11:49:50;;;;;;;3.73;2.10;;;19.80;99.90;;;;;;5083797;28;20456;-77
2022/07/08 11:52:18;;;;;;;3.37;1.90;;;20.00;99.90;;;;;;5089059;28;20511;-80
2022/07/08 11:54:46;;;;;;;6.97;2.33;;;19.90;99.90;;;;;;5083758;28;20515;-80
2022/07/08 11:57:14;;;;;;;6.10;1.80;;;19.90;99.90;;;;;;5080371;28;20441;-80
2022/07/08 11:59:43;;;;;;;3.40;1.87;;;19.90;99.90;;;;;;5083444;28;20444;-80
2022/07/08 12:02:11;;;;;;;4.30;2.23;;;19.80;99.90;;;;;;5078273;28;20987;-79
2022/07/08 12:04:43;;;;;;;3.13;2.10;;;19.80;99.90;;;;;;5076352;28;20441;-79
2022/07/08 12:07:20;;;;;;;2.97;1.83;;;19.80;99.90;;;;;;5076651;28;20891;-77
2022/07/08 12:09:53;;;;;;;6.00;1.90;;;19.80;99.90;;;;;;5074331;28;20803;-75
2022/07/08 12:12:22;;;;;;;3.30;2.07;;;19.60;99.90;;;;;;5074203;28;20480;-76
2022/07/08 12:14:49;;;;;;;3.33;1.93;;;19.50;99.90;;;;;;5075089;28;20464;-76
2022/07/08 12:17:23;;;;;;;3.10;1.80;;;19.40;99.90;;;;;;5075940;28;20974;-78
2022/07/08 12:19:53;;;;;;;8.50;2.37;;;19.40;99.90;;;;;;5076981;28;20443;-78
2022/07/08 12:22:43;;;;;;;7.97;1.97;;;19.40;99.90;;;;;;5074645;28;20468;-76
2022/07/08 12:25:10;;;;;;;5.50;2.87;;;19.40;99.90;;;;;;5075615;28;20479;-76
2022/07/08 12:27:37;;;;;;;12.00;2.40;;;19.50;99.90;;;;;;5074398;28;20445;-76
2022/07/08 12:30:05;;;;;;;9.50;2.40;;;19.60;99.90;;;;;;5076262;28;20444;-77
2022/07/08 12:32:37;;;;;;;10.60;2.03;;;19.60;99.90;;;;;;5081254;28;20468;-77
2022/07/08 12:35:06;;;;;;;5.43;2.17;;;19.60;99.90;;;;;;5080696;28;20914;-77
2022/07/08 12:37:32;;;;;;;3.93;2.83;;;19.60;99.90;;;;;;5076139;28;20456;-76
2022/07/08 12:40:13;;;;;;;5.30;1.90;;;19.70;99.90;;;;;;5074763;28;20453;-76
2022/07/08 12:42:39;;;;;;;3.43;2.00;;;19.80;99.90;;;;;;5074129;28;20535;-76
2022/07/08 12:45:14;;;;;;;4.70;2.60;;;19.70;99.90;;;;;;5074946;28;20445;-77
2022/07/08 12:47:41;;;;;;;2.77;1.87;;;19.70;99.90;;;;;;5083611;28;20429;-78
2022/07/08 12:50:10;;;;;;;3.63;2.00;;;19.80;99.90;;;;;;5083886;28;20464;-78